sensor_id;sensor_type;location;lat;lon;timestamp;temperature;humidity
71039;SHT30;58692;43.212;27.908;2024-02-21T00:00:20;7.12;86.97
71039;SHT30;58692;43.212;27.908;2024-02-21T00:02:45;7.08;87.33
71039;SHT30;58692;43.212;27.908;2024-02-21T00:05:11;7.12;87.26
71039;SHT30;58692;43.212;27.908;2024-02-21T00:07:36;7.12;87.26
71039;SHT30;58692;43.212;27.908;2024-02-21T00:10:02;7.12;87.22
71039;SHT30;58692;43.212;27.908;2024-02-21T00:12:28;7.07;87.39
71039;SHT30;58692;43.212;27.908;2024-02-21T00:14:54;7.02;87.54
71039;SHT30;58692;43.212;27.908;2024-02-21T00:17:19;7.02;87.59
71039;SHT30;58692;43.212;27.908;2024-02-21T00:19:45;7.02;87.50
71039;SHT30;58692;43.212;27.908;2024-02-21T00:22:10;6.99;87.51
71039;SHT30;58692;43.212;27.908;2024-02-21T00:24:36;6.81;88.17
71039;SHT30;58692;43.212;27.908;2024-02-21T00:27:02;6.81;87.83
71039;SHT30;58692;43.212;27.908;2024-02-21T00:29:27;6.66;88.42
71039;SHT30;58692;43.212;27.908;2024-02-21T00:31:53;6.63;88.44
71039;SHT30;58692;43.212;27.908;2024-02-21T00:34:19;6.60;88.42
71039;SHT30;58692;43.212;27.908;2024-02-21T00:36:44;6.58;88.39
71039;SHT30;58692;43.212;27.908;2024-02-21T00:39:10;6.67;88.22
71039;SHT30;58692;43.212;27.908;2024-02-21T00:41:35;6.66;88.16
71039;SHT30;58692;43.212;27.908;2024-02-21T00:44:01;6.70;88.11
71039;SHT30;58692;43.212;27.908;2024-02-21T00:46:26;6.56;88.36
71039;SHT30;58692;43.212;27.908;2024-02-21T00:48:52;6.50;88.63
71039;SHT30;58692;43.212;27.908;2024-02-21T00:51:17;6.51;88.63
71039;SHT30;58692;43.212;27.908;2024-02-21T00:53:43;6.44;88.67
71039;SHT30;58692;43.212;27.908;2024-02-21T00:56:09;6.44;88.68
71039;SHT30;58692;43.212;27.908;2024-02-21T00:58:34;6.48;88.57
71039;SHT30;58692;43.212;27.908;2024-02-21T01:01:01;6.53;88.41
71039;SHT30;58692;43.212;27.908;2024-02-21T01:03:27;6.50;88.36
71039;SHT30;58692;43.212;27.908;2024-02-21T01:05:52;6.38;88.67
71039;SHT30;58692;43.212;27.908;2024-02-21T01:08:18;6.44;88.76
71039;SHT30;58692;43.212;27.908;2024-02-21T01:10:43;6.47;88.49
71039;SHT30;58692;43.212;27.908;2024-02-21T01:13:09;6.44;88.58
71039;SHT30;58692;43.212;27.908;2024-02-21T01:15:34;6.43;88.57
71039;SHT30;58692;43.212;27.908;2024-02-21T01:18:01;6.38;88.66
71039;SHT30;58692;43.212;27.908;2024-02-21T01:20:26;6.46;88.46
71039;SHT30;58692;43.212;27.908;2024-02-21T01:22:52;6.51;88.31
71039;SHT30;58692;43.212;27.908;2024-02-21T01:25:21;6.53;88.22
71039;SHT30;58692;43.212;27.908;2024-02-21T01:27:46;6.44;88.41
71039;SHT30;58692;43.212;27.908;2024-02-21T01:30:12;6.44;88.52
71039;SHT30;58692;43.212;27.908;2024-02-21T01:32:37;6.47;88.47
71039;SHT30;58692;43.212;27.908;2024-02-21T01:35:03;6.40;88.66
71039;SHT30;58692;43.212;27.908;2024-02-21T01:37:29;6.47;88.63
71039;SHT30;58692;43.212;27.908;2024-02-21T01:39:54;6.48;88.50
71039;SHT30;58692;43.212;27.908;2024-02-21T01:42:20;6.56;88.31
71039;SHT30;58692;43.212;27.908;2024-02-21T01:44:45;6.54;88.23
71039;SHT30;58692;43.212;27.908;2024-02-21T01:47:12;6.48;88.41
71039;SHT30;58692;43.212;27.908;2024-02-21T01:49:41;6.48;88.43
71039;SHT30;58692;43.212;27.908;2024-02-21T01:52:07;6.50;88.32
71039;SHT30;58692;43.212;27.908;2024-02-21T01:54:34;6.51;88.33
71039;SHT30;58692;43.212;27.908;2024-02-21T01:57:00;6.53;88.21
71039;SHT30;58692;43.212;27.908;2024-02-21T01:59:26;6.54;88.21
71039;SHT30;58692;43.212;27.908;2024-02-21T02:01:52;6.57;88.06
71039;SHT30;58692;43.212;27.908;2024-02-21T02:04:19;6.56;88.00
71039;SHT30;58692;43.212;27.908;2024-02-21T02:06:45;6.53;88.17
71039;SHT30;58692;43.212;27.908;2024-02-21T02:09:11;6.57;88.15
71039;SHT30;58692;43.212;27.908;2024-02-21T02:11:37;6.63;87.96
71039;SHT30;58692;43.212;27.908;2024-02-21T02:14:02;6.61;87.98
71039;SHT30;58692;43.212;27.908;2024-02-21T02:16:28;6.66;88.06
71039;SHT30;58692;43.212;27.908;2024-02-21T02:18:54;6.67;87.83
71039;SHT30;58692;43.212;27.908;2024-02-21T02:21:27;6.68;87.75
71039;SHT30;58692;43.212;27.908;2024-02-21T02:23:54;6.68;87.79
71039;SHT30;58692;43.212;27.908;2024-02-21T02:26:19;6.66;87.81
71039;SHT30;58692;43.212;27.908;2024-02-21T02:28:45;6.64;87.87
71039;SHT30;58692;43.212;27.908;2024-02-21T02:31:11;6.61;88.04
71039;SHT30;58692;43.212;27.908;2024-02-21T02:33:36;6.56;88.38
71039;SHT30;58692;43.212;27.908;2024-02-21T02:36:02;6.43;88.68
71039;SHT30;58692;43.212;27.908;2024-02-21T02:38:28;6.41;88.67
71039;SHT30;58692;43.212;27.908;2024-02-21T02:40:53;6.29;88.80
71039;SHT30;58692;43.212;27.908;2024-02-21T02:43:19;6.32;88.80
71039;SHT30;58692;43.212;27.908;2024-02-21T02:45:44;6.27;88.90
71039;SHT30;58692;43.212;27.908;2024-02-21T02:48:11;6.13;88.99
71039;SHT30;58692;43.212;27.908;2024-02-21T02:50:37;6.10;88.85
71039;SHT30;58692;43.212;27.908;2024-02-21T02:53:02;6.06;89.05
71039;SHT30;58692;43.212;27.908;2024-02-21T02:55:28;6.16;88.84
71039;SHT30;58692;43.212;27.908;2024-02-21T02:57:54;6.07;88.87
71039;SHT30;58692;43.212;27.908;2024-02-21T03:00:19;6.05;89.24
71039;SHT30;58692;43.212;27.908;2024-02-21T03:02:46;5.96;89.31
71039;SHT30;58692;43.212;27.908;2024-02-21T03:05:17;5.93;89.58
71039;SHT30;58692;43.212;27.908;2024-02-21T03:07:44;5.92;89.54
71039;SHT30;58692;43.212;27.908;2024-02-21T03:10:10;5.96;89.53
71039;SHT30;58692;43.212;27.908;2024-02-21T03:12:37;5.96;89.53
71039;SHT30;58692;43.212;27.908;2024-02-21T03:15:03;6.01;89.37
71039;SHT30;58692;43.212;27.908;2024-02-21T03:17:30;6.05;89.27
71039;SHT30;58692;43.212;27.908;2024-02-21T03:19:55;6.10;89.30
71039;SHT30;58692;43.212;27.908;2024-02-21T03:22:22;6.12;89.34
71039;SHT30;58692;43.212;27.908;2024-02-21T03:24:48;6.07;89.28
71039;SHT30;58692;43.212;27.908;2024-02-21T03:27:13;6.01;89.33
71039;SHT30;58692;43.212;27.908;2024-02-21T03:29:39;6.02;89.49
71039;SHT30;58692;43.212;27.908;2024-02-21T03:32:05;5.86;89.66
71039;SHT30;58692;43.212;27.908;2024-02-21T03:34:30;5.93;89.55
71039;SHT30;58692;43.212;27.908;2024-02-21T03:36:56;5.93;89.59
71039;SHT30;58692;43.212;27.908;2024-02-21T03:39:22;5.93;89.55
71039;SHT30;58692;43.212;27.908;2024-02-21T03:41:47;6.02;89.53
71039;SHT30;58692;43.212;27.908;2024-02-21T03:44:13;6.07;89.27
71039;SHT30;58692;43.212;27.908;2024-02-21T03:46:39;6.09;88.93
71039;SHT30;58692;43.212;27.908;2024-02-21T03:49:04;6.09;88.80
71039;SHT30;58692;43.212;27.908;2024-02-21T03:51:30;6.10;88.97
71039;SHT30;58692;43.212;27.908;2024-02-21T03:53:55;6.10;89.33
71039;SHT30;58692;43.212;27.908;2024-02-21T03:56:21;6.13;89.51
71039;SHT30;58692;43.212;27.908;2024-02-21T03:58:46;6.10;89.75
71039;SHT30;58692;43.212;27.908;2024-02-21T04:01:15;6.17;89.71
71039;SHT30;58692;43.212;27.908;2024-02-21T04:03:40;6.15;89.71
71039;SHT30;58692;43.212;27.908;2024-02-21T04:06:06;6.17;89.96
71039;SHT30;58692;43.212;27.908;2024-02-21T04:08:31;6.19;90.11
71039;SHT30;58692;43.212;27.908;2024-02-21T04:10:57;6.17;90.30
71039;SHT30;58692;43.212;27.908;2024-02-21T04:13:23;6.23;90.24
71039;SHT30;58692;43.212;27.908;2024-02-21T04:15:48;6.22;90.49
71039;SHT30;58692;43.212;27.908;2024-02-21T04:18:14;6.15;90.69
71039;SHT30;58692;43.212;27.908;2024-02-21T04:20:40;6.19;90.66
71039;SHT30;58692;43.212;27.908;2024-02-21T04:23:05;6.19;90.59
71039;SHT30;58692;43.212;27.908;2024-02-21T04:25:31;6.20;90.53
71039;SHT30;58692;43.212;27.908;2024-02-21T04:27:57;6.22;90.47
71039;SHT30;58692;43.212;27.908;2024-02-21T04:30:22;6.20;90.66
71039;SHT30;58692;43.212;27.908;2024-02-21T04:32:48;6.22;90.69
71039;SHT30;58692;43.212;27.908;2024-02-21T04:35:13;6.26;90.70
71039;SHT30;58692;43.212;27.908;2024-02-21T04:37:39;6.26;90.70
71039;SHT30;58692;43.212;27.908;2024-02-21T04:40:05;6.20;90.77
71039;SHT30;58692;43.212;27.908;2024-02-21T04:42:31;6.17;90.44
71039;SHT30;58692;43.212;27.908;2024-02-21T04:44:57;6.12;90.34
71039;SHT30;58692;43.212;27.908;2024-02-21T04:47:22;6.12;90.58
71039;SHT30;58692;43.212;27.908;2024-02-21T04:49:50;6.15;90.65
71039;SHT30;58692;43.212;27.908;2024-02-21T04:52:15;6.10;90.85
71039;SHT30;58692;43.212;27.908;2024-02-21T04:54:41;6.09;90.86
71039;SHT30;58692;43.212;27.908;2024-02-21T04:57:06;6.06;90.55
71039;SHT30;58692;43.212;27.908;2024-02-21T04:59:32;6.06;90.91
71039;SHT30;58692;43.212;27.908;2024-02-21T05:01:58;6.01;91.04
71039;SHT30;58692;43.212;27.908;2024-02-21T05:04:24;6.01;90.99
71039;SHT30;58692;43.212;27.908;2024-02-21T05:06:49;5.96;91.25
71039;SHT30;58692;43.212;27.908;2024-02-21T05:09:15;6.03;91.06
71039;SHT30;58692;43.212;27.908;2024-02-21T05:11:41;5.91;91.03
71039;SHT30;58692;43.212;27.908;2024-02-21T05:14:07;5.81;91.64
71039;SHT30;58692;43.212;27.908;2024-02-21T05:16:41;5.89;91.40
71039;SHT30;58692;43.212;27.908;2024-02-21T05:19:07;5.98;91.29
71039;SHT30;58692;43.212;27.908;2024-02-21T05:21:33;5.95;91.41
71039;SHT30;58692;43.212;27.908;2024-02-21T05:24:09;5.89;91.87
71039;SHT30;58692;43.212;27.908;2024-02-21T05:26:35;6.01;91.38
71039;SHT30;58692;43.212;27.908;2024-02-21T05:29:00;6.05;91.23
71039;SHT30;58692;43.212;27.908;2024-02-21T05:31:26;6.05;91.33
71039;SHT30;58692;43.212;27.908;2024-02-21T05:34:08;6.13;90.96
71039;SHT30;58692;43.212;27.908;2024-02-21T05:36:34;6.17;90.93
71039;SHT30;58692;43.212;27.908;2024-02-21T05:39:00;6.22;90.78
71039;SHT30;58692;43.212;27.908;2024-02-21T05:41:25;6.26;90.66
71039;SHT30;58692;43.212;27.908;2024-02-21T05:43:51;6.30;90.66
71039;SHT30;58692;43.212;27.908;2024-02-21T05:46:19;6.32;90.44
71039;SHT30;58692;43.212;27.908;2024-02-21T05:48:45;6.33;90.46
71039;SHT30;58692;43.212;27.908;2024-02-21T05:51:11;6.38;90.28
71039;SHT30;58692;43.212;27.908;2024-02-21T05:53:37;6.24;90.62
71039;SHT30;58692;43.212;27.908;2024-02-21T05:56:10;6.30;90.43
71039;SHT30;58692;43.212;27.908;2024-02-21T05:58:37;6.32;90.43
71039;SHT30;58692;43.212;27.908;2024-02-21T06:01:02;6.36;90.43
71039;SHT30;58692;43.212;27.908;2024-02-21T06:03:31;6.36;90.20
71039;SHT30;58692;43.212;27.908;2024-02-21T06:05:56;6.27;90.53
71039;SHT30;58692;43.212;27.908;2024-02-21T06:08:22;6.26;90.46
71039;SHT30;58692;43.212;27.908;2024-02-21T06:10:47;6.30;90.28
71039;SHT30;58692;43.212;27.908;2024-02-21T06:13:14;6.32;90.31
71039;SHT30;58692;43.212;27.908;2024-02-21T06:15:40;6.26;89.59
71039;SHT30;58692;43.212;27.908;2024-02-21T06:18:06;6.23;89.53
71039;SHT30;58692;43.212;27.908;2024-02-21T06:20:31;6.23;89.50
71039;SHT30;58692;43.212;27.908;2024-02-21T06:22:57;6.20;89.46
71039;SHT30;58692;43.212;27.908;2024-02-21T06:25:23;6.20;89.46
71039;SHT30;58692;43.212;27.908;2024-02-21T06:27:48;6.17;89.44
71039;SHT30;58692;43.212;27.908;2024-02-21T06:30:14;6.17;89.64
71039;SHT30;58692;43.212;27.908;2024-02-21T06:32:40;6.15;89.68
71039;SHT30;58692;43.212;27.908;2024-02-21T06:35:05;6.23;89.50
71039;SHT30;58692;43.212;27.908;2024-02-21T06:37:31;6.32;89.50
71039;SHT30;58692;43.212;27.908;2024-02-21T06:39:58;6.38;89.67
71039;SHT30;58692;43.212;27.908;2024-02-21T06:42:25;6.41;88.85
71039;SHT30;58692;43.212;27.908;2024-02-21T06:44:51;6.46;88.79
71039;SHT30;58692;43.212;27.908;2024-02-21T06:47:17;6.46;88.87
71039;SHT30;58692;43.212;27.908;2024-02-21T06:49:42;6.54;88.58
71039;SHT30;58692;43.212;27.908;2024-02-21T06:52:08;6.50;88.45
71039;SHT30;58692;43.212;27.908;2024-02-21T06:54:33;6.76;87.44
71039;SHT30;58692;43.212;27.908;2024-02-21T06:56:59;6.91;87.13
71039;SHT30;58692;43.212;27.908;2024-02-21T06:59:26;7.08;86.51
71039;SHT30;58692;43.212;27.908;2024-02-21T07:01:53;7.46;86.08
71039;SHT30;58692;43.212;27.908;2024-02-21T07:04:25;7.62;85.30
71039;SHT30;58692;43.212;27.908;2024-02-21T07:06:50;7.55;84.80
71039;SHT30;58692;43.212;27.908;2024-02-21T07:09:16;7.74;84.73
71039;SHT30;58692;43.212;27.908;2024-02-21T07:11:42;8.04;83.97
71039;SHT30;58692;43.212;27.908;2024-02-21T07:14:07;8.25;82.20
71039;SHT30;58692;43.212;27.908;2024-02-21T07:16:33;8.48;81.93
71039;SHT30;58692;43.212;27.908;2024-02-21T07:19:02;8.42;81.65
71039;SHT30;58692;43.212;27.908;2024-02-21T07:21:38;8.90;81.67
71039;SHT30;58692;43.212;27.908;2024-02-21T07:24:07;10.12;78.02
71039;SHT30;58692;43.212;27.908;2024-02-21T07:26:41;10.65;75.97
71039;SHT30;58692;43.212;27.908;2024-02-21T07:29:10;10.22;76.87
71039;SHT30;58692;43.212;27.908;2024-02-21T07:31:43;10.46;76.74
71039;SHT30;58692;43.212;27.908;2024-02-21T07:34:09;10.60;75.15
71039;SHT30;58692;43.212;27.908;2024-02-21T07:36:35;10.52;75.44
71039;SHT30;58692;43.212;27.908;2024-02-21T07:39:02;10.15;76.78
71039;SHT30;58692;43.212;27.908;2024-02-21T07:41:28;9.80;76.99
71039;SHT30;58692;43.212;27.908;2024-02-21T07:43:55;9.60;78.10
71039;SHT30;58692;43.212;27.908;2024-02-21T07:46:21;9.55;78.43
71039;SHT30;58692;43.212;27.908;2024-02-21T07:48:47;9.47;79.32
71039;SHT30;58692;43.212;27.908;2024-02-21T07:51:13;9.17;79.81
71039;SHT30;58692;43.212;27.908;2024-02-21T07:53:39;9.05;79.88
71039;SHT30;58692;43.212;27.908;2024-02-21T07:56:10;8.90;81.37
71039;SHT30;58692;43.212;27.908;2024-02-21T07:58:36;9.09;80.32
71039;SHT30;58692;43.212;27.908;2024-02-21T08:01:02;8.93;80.68
71039;SHT30;58692;43.212;27.908;2024-02-21T08:03:28;8.92;81.41
71039;SHT30;58692;43.212;27.908;2024-02-21T08:05:53;8.99;81.47
71039;SHT30;58692;43.212;27.908;2024-02-21T08:08:19;8.99;80.60
71039;SHT30;58692;43.212;27.908;2024-02-21T08:10:49;9.00;80.84
71039;SHT30;58692;43.212;27.908;2024-02-21T08:13:14;9.41;80.43
71039;SHT30;58692;43.212;27.908;2024-02-21T08:15:41;9.73;79.26
71039;SHT30;58692;43.212;27.908;2024-02-21T08:18:07;10.12;77.72
71039;SHT30;58692;43.212;27.908;2024-02-21T08:20:33;10.09;77.81
71039;SHT30;58692;43.212;27.908;2024-02-21T08:23:23;10.38;77.45
71039;SHT30;58692;43.212;27.908;2024-02-21T08:25:48;10.23;77.58
71039;SHT30;58692;43.212;27.908;2024-02-21T08:28:14;10.32;77.16
71039;SHT30;58692;43.212;27.908;2024-02-21T08:30:40;10.25;77.70
71039;SHT30;58692;43.212;27.908;2024-02-21T08:33:09;10.45;77.40
71039;SHT30;58692;43.212;27.908;2024-02-21T08:35:35;10.56;76.86
71039;SHT30;58692;43.212;27.908;2024-02-21T08:38:00;10.67;76.16
71039;SHT30;58692;43.212;27.908;2024-02-21T08:40:26;10.63;76.19
71039;SHT30;58692;43.212;27.908;2024-02-21T08:43:00;10.77;75.83
71039;SHT30;58692;43.212;27.908;2024-02-21T08:45:29;11.06;74.88
71039;SHT30;58692;43.212;27.908;2024-02-21T08:47:55;11.24;74.11
71039;SHT30;58692;43.212;27.908;2024-02-21T08:50:26;10.94;74.64
71039;SHT30;58692;43.212;27.908;2024-02-21T08:52:52;10.76;75.10
71039;SHT30;58692;43.212;27.908;2024-02-21T08:55:23;10.83;75.13
71039;SHT30;58692;43.212;27.908;2024-02-21T08:57:49;10.59;75.73
71039;SHT30;58692;43.212;27.908;2024-02-21T09:00:17;10.41;76.27
71039;SHT30;58692;43.212;27.908;2024-02-21T09:02:42;10.50;75.77
71039;SHT30;58692;43.212;27.908;2024-02-21T09:05:09;10.38;75.88
71039;SHT30;58692;43.212;27.908;2024-02-21T09:07:35;10.39;75.33
71039;SHT30;58692;43.212;27.908;2024-02-21T09:10:00;10.42;75.27
71039;SHT30;58692;43.212;27.908;2024-02-21T09:12:26;10.63;74.57
71039;SHT30;58692;43.212;27.908;2024-02-21T09:14:52;10.93;74.06
71039;SHT30;58692;43.212;27.908;2024-02-21T09:17:18;11.00;74.11
71039;SHT30;58692;43.212;27.908;2024-02-21T09:19:46;11.34;72.47
71039;SHT30;58692;43.212;27.908;2024-02-21T09:22:13;11.44;71.62
71039;SHT30;58692;43.212;27.908;2024-02-21T09:24:38;11.42;70.99
71039;SHT30;58692;43.212;27.908;2024-02-21T09:27:04;12.02;69.53
71039;SHT30;58692;43.212;27.908;2024-02-21T09:29:31;12.79;66.90
71039;SHT30;58692;43.212;27.908;2024-02-21T09:31:59;13.22;66.95
71039;SHT30;58692;43.212;27.908;2024-02-21T09:34:25;13.48;65.46
71039;SHT30;58692;43.212;27.908;2024-02-21T09:36:50;13.65;64.69
71039;SHT30;58692;43.212;27.908;2024-02-21T09:39:16;13.32;64.93
71039;SHT30;58692;43.212;27.908;2024-02-21T09:41:47;13.75;64.34
71039;SHT30;58692;43.212;27.908;2024-02-21T09:44:19;14.44;61.12
71039;SHT30;58692;43.212;27.908;2024-02-21T09:46:52;14.34;59.72
71039;SHT30;58692;43.212;27.908;2024-02-21T09:49:30;14.13;60.19
71039;SHT30;58692;43.212;27.908;2024-02-21T09:52:05;14.09;60.31
71039;SHT30;58692;43.212;27.908;2024-02-21T09:54:33;13.95;60.09
71039;SHT30;58692;43.212;27.908;2024-02-21T09:57:00;14.42;59.17
71039;SHT30;58692;43.212;27.908;2024-02-21T09:59:28;14.74;58.46
71039;SHT30;58692;43.212;27.908;2024-02-21T10:01:54;14.38;57.35
71039;SHT30;58692;43.212;27.908;2024-02-21T10:04:21;13.75;59.31
71039;SHT30;58692;43.212;27.908;2024-02-21T10:06:47;12.88;61.50
71039;SHT30;58692;43.212;27.908;2024-02-21T10:09:21;12.79;62.25
71039;SHT30;58692;43.212;27.908;2024-02-21T10:11:49;12.61;62.85
71039;SHT30;58692;43.212;27.908;2024-02-21T10:14:15;12.49;63.34
71039;SHT30;58692;43.212;27.908;2024-02-21T10:16:41;12.22;63.49
71039;SHT30;58692;43.212;27.908;2024-02-21T10:19:18;12.18;63.48
71039;SHT30;58692;43.212;27.908;2024-02-21T10:21:44;12.20;62.86
71039;SHT30;58692;43.212;27.908;2024-02-21T10:27:13;12.25;63.03
71039;SHT30;58692;43.212;27.908;2024-02-21T10:29:41;12.25;63.95
71039;SHT30;58692;43.212;27.908;2024-02-21T10:34:42;11.54;65.84
71039;SHT30;58692;43.212;27.908;2024-02-21T10:37:11;11.42;65.93
71039;SHT30;58692;43.212;27.908;2024-02-21T10:39:40;11.21;70.32
71039;SHT30;58692;43.212;27.908;2024-02-21T10:42:05;10.19;74.84
71039;SHT30;58692;43.212;27.908;2024-02-21T10:44:34;9.91;77.12
71039;SHT30;58692;43.212;27.908;2024-02-21T10:47:07;9.77;78.07
71039;SHT30;58692;43.212;27.908;2024-02-21T10:49:38;9.46;78.90
71039;SHT30;58692;43.212;27.908;2024-02-21T10:57:27;9.33;79.78
71039;SHT30;58692;43.212;27.908;2024-02-21T10:59:58;9.40;79.50
71039;SHT30;58692;43.212;27.908;2024-02-21T11:02:25;9.47;79.48
71039;SHT30;58692;43.212;27.908;2024-02-21T11:04:52;9.57;79.20
71039;SHT30;58692;43.212;27.908;2024-02-21T11:07:19;9.51;79.28
71039;SHT30;58692;43.212;27.908;2024-02-21T11:09:53;9.40;79.64
71039;SHT30;58692;43.212;27.908;2024-02-21T11:12:23;9.26;79.85
71039;SHT30;58692;43.212;27.908;2024-02-21T11:15:02;9.05;80.43
71039;SHT30;58692;43.212;27.908;2024-02-21T11:17:30;8.65;82.08
71039;SHT30;58692;43.212;27.908;2024-02-21T11:19:59;8.73;82.15
71039;SHT30;58692;43.212;27.908;2024-02-21T11:22:26;8.78;82.20
71039;SHT30;58692;43.212;27.908;2024-02-21T11:25:06;8.80;82.14
71039;SHT30;58692;43.212;27.908;2024-02-21T11:27:37;8.89;82.12
71039;SHT30;58692;43.212;27.908;2024-02-21T11:30:07;8.61;82.77
71039;SHT30;58692;43.212;27.908;2024-02-21T11:32:37;8.66;82.92
71039;SHT30;58692;43.212;27.908;2024-02-21T11:35:04;8.45;83.69
71039;SHT30;58692;43.212;27.908;2024-02-21T11:37:33;8.44;83.67
71039;SHT30;58692;43.212;27.908;2024-02-21T11:40:00;8.55;83.59
71039;SHT30;58692;43.212;27.908;2024-02-21T11:42:27;8.38;84.10
71039;SHT30;58692;43.212;27.908;2024-02-21T11:44:54;8.33;84.35
71039;SHT30;58692;43.212;27.908;2024-02-21T11:47:23;8.38;84.18
71039;SHT30;58692;43.212;27.908;2024-02-21T11:49:49;8.40;84.11
71039;SHT30;58692;43.212;27.908;2024-02-21T11:52:21;8.38;84.42
71039;SHT30;58692;43.212;27.908;2024-02-21T11:54:48;8.52;84.09
71039;SHT30;58692;43.212;27.908;2024-02-21T11:57:31;8.66;83.74
71039;SHT30;58692;43.212;27.908;2024-02-21T11:59:58;8.71;83.12
71039;SHT30;58692;43.212;27.908;2024-02-21T12:02:23;8.78;83.03
71039;SHT30;58692;43.212;27.908;2024-02-21T12:04:49;8.82;82.64
71039;SHT30;58692;43.212;27.908;2024-02-21T12:07:15;8.76;83.02
71039;SHT30;58692;43.212;27.908;2024-02-21T12:09:41;8.75;83.48
71039;SHT30;58692;43.212;27.908;2024-02-21T12:12:07;8.71;83.24
71039;SHT30;58692;43.212;27.908;2024-02-21T12:14:34;8.73;83.65
71039;SHT30;58692;43.212;27.908;2024-02-21T12:17:03;8.66;83.67
71039;SHT30;58692;43.212;27.908;2024-02-21T12:19:31;8.85;83.59
71039;SHT30;58692;43.212;27.908;2024-02-21T12:21:59;8.88;83.77
71039;SHT30;58692;43.212;27.908;2024-02-21T12:24:26;8.72;84.23
71039;SHT30;58692;43.212;27.908;2024-02-21T12:26:58;8.88;83.70
71039;SHT30;58692;43.212;27.908;2024-02-21T12:29:33;8.96;83.50
71039;SHT30;58692;43.212;27.908;2024-02-21T12:31:59;9.10;83.29
71039;SHT30;58692;43.212;27.908;2024-02-21T12:34:25;9.06;82.80
71039;SHT30;58692;43.212;27.908;2024-02-21T12:36:55;8.82;83.51
71039;SHT30;58692;43.212;27.908;2024-02-21T12:39:20;8.90;83.94
71039;SHT30;58692;43.212;27.908;2024-02-21T12:41:46;9.03;83.40
71039;SHT30;58692;43.212;27.908;2024-02-21T12:44:12;9.00;83.70
71039;SHT30;58692;43.212;27.908;2024-02-21T12:46:38;8.96;84.15
71039;SHT30;58692;43.212;27.908;2024-02-21T12:49:05;8.82;84.53
71039;SHT30;58692;43.212;27.908;2024-02-21T12:51:32;8.73;84.62
71039;SHT30;58692;43.212;27.908;2024-02-21T12:53:59;8.78;84.36
71039;SHT30;58692;43.212;27.908;2024-02-21T12:56:27;8.78;84.73
71039;SHT30;58692;43.212;27.908;2024-02-21T12:58:53;8.59;85.29
71039;SHT30;58692;43.212;27.908;2024-02-21T13:01:20;8.72;85.23
71039;SHT30;58692;43.212;27.908;2024-02-21T13:03:49;8.73;85.46
71039;SHT30;58692;43.212;27.908;2024-02-21T13:06:15;8.83;85.13
71039;SHT30;58692;43.212;27.908;2024-02-21T13:08:44;8.82;84.99
71039;SHT30;58692;43.212;27.908;2024-02-21T13:11:18;8.73;85.26
71039;SHT30;58692;43.212;27.908;2024-02-21T13:16:40;8.48;86.17
71039;SHT30;58692;43.212;27.908;2024-02-21T13:19:18;8.28;87.14
71039;SHT30;58692;43.212;27.908;2024-02-21T13:21:45;8.07;88.33
71039;SHT30;58692;43.212;27.908;2024-02-21T13:24:16;7.91;88.77
71039;SHT30;58692;43.212;27.908;2024-02-21T13:32:49;8.05;87.54
71039;SHT30;58692;43.212;27.908;2024-02-21T13:38:23;8.03;86.97
71039;SHT30;58692;43.212;27.908;2024-02-21T13:41:00;8.04;86.97
71039;SHT30;58692;43.212;27.908;2024-02-21T13:43:49;8.00;86.78
71039;SHT30;58692;43.212;27.908;2024-02-21T13:46:15;7.95;87.19
71039;SHT30;58692;43.212;27.908;2024-02-21T13:48:40;7.89;87.73
71039;SHT30;58692;43.212;27.908;2024-02-21T13:51:06;7.89;87.95
71039;SHT30;58692;43.212;27.908;2024-02-21T13:53:32;7.95;87.70
71039;SHT30;58692;43.212;27.908;2024-02-21T13:55:59;7.84;87.61
71039;SHT30;58692;43.212;27.908;2024-02-21T13:58:25;7.83;87.75
71039;SHT30;58692;43.212;27.908;2024-02-21T14:00:53;7.93;87.55
71039;SHT30;58692;43.212;27.908;2024-02-21T14:03:22;8.18;87.06
71039;SHT30;58692;43.212;27.908;2024-02-21T14:05:47;8.17;86.41
71039;SHT30;58692;43.212;27.908;2024-02-21T14:08:14;7.95;86.79
71039;SHT30;58692;43.212;27.908;2024-02-21T14:10:42;7.94;86.95
71039;SHT30;58692;43.212;27.908;2024-02-21T14:13:08;8.05;86.91
71039;SHT30;58692;43.212;27.908;2024-02-21T14:15:34;8.04;87.21
71039;SHT30;58692;43.212;27.908;2024-02-21T14:18:16;7.95;86.49
71039;SHT30;58692;43.212;27.908;2024-02-21T14:20:51;7.98;86.96
71039;SHT30;58692;43.212;27.908;2024-02-21T14:23:20;7.90;87.23
71039;SHT30;58692;43.212;27.908;2024-02-21T14:25:47;7.93;86.99
71039;SHT30;58692;43.212;27.908;2024-02-21T14:28:12;7.93;87.42
71039;SHT30;58692;43.212;27.908;2024-02-21T14:30:47;7.93;87.41
71039;SHT30;58692;43.212;27.908;2024-02-21T14:33:19;8.08;87.42
71039;SHT30;58692;43.212;27.908;2024-02-21T14:35:47;8.08;86.95
71039;SHT30;58692;43.212;27.908;2024-02-21T14:38:13;8.03;87.29
71039;SHT30;58692;43.212;27.908;2024-02-21T14:40:39;8.07;86.72
71039;SHT30;58692;43.212;27.908;2024-02-21T14:43:08;7.94;87.59
71039;SHT30;58692;43.212;27.908;2024-02-21T14:48:21;7.94;87.76
71039;SHT30;58692;43.212;27.908;2024-02-21T14:51:14;7.97;87.78
71039;SHT30;58692;43.212;27.908;2024-02-21T14:53:40;7.97;87.31
71039;SHT30;58692;43.212;27.908;2024-02-21T14:56:15;7.89;87.08
71039;SHT30;58692;43.212;27.908;2024-02-21T14:58:41;7.90;87.27
71039;SHT30;58692;43.212;27.908;2024-02-21T15:01:08;7.97;87.44
71039;SHT30;58692;43.212;27.908;2024-02-21T15:03:39;7.95;87.50
71039;SHT30;58692;43.212;27.908;2024-02-21T15:06:07;8.00;87.87
71039;SHT30;58692;43.212;27.908;2024-02-21T15:08:33;7.93;88.23
71039;SHT30;58692;43.212;27.908;2024-02-21T15:10:59;7.94;88.33
71039;SHT30;58692;43.212;27.908;2024-02-21T15:13:27;7.89;88.61
71039;SHT30;58692;43.212;27.908;2024-02-21T15:15:53;7.83;88.90
71039;SHT30;58692;43.212;27.908;2024-02-21T15:18:20;7.83;89.10
71039;SHT30;58692;43.212;27.908;2024-02-21T15:20:46;7.87;89.06
71039;SHT30;58692;43.212;27.908;2024-02-21T15:23:11;7.83;89.28
71039;SHT30;58692;43.212;27.908;2024-02-21T15:25:37;7.72;89.69
71039;SHT30;58692;43.212;27.908;2024-02-21T15:28:03;7.76;89.42
71039;SHT30;58692;43.212;27.908;2024-02-21T15:30:30;7.72;89.63
71039;SHT30;58692;43.212;27.908;2024-02-21T15:32:58;7.72;89.61
71039;SHT30;58692;43.212;27.908;2024-02-21T15:35:28;7.69;89.65
71039;SHT30;58692;43.212;27.908;2024-02-21T15:37:54;7.66;89.75
71039;SHT30;58692;43.212;27.908;2024-02-21T15:40:21;7.63;90.15
71039;SHT30;58692;43.212;27.908;2024-02-21T15:42:47;7.65;89.97
71039;SHT30;58692;43.212;27.908;2024-02-21T15:45:12;7.63;90.08
71039;SHT30;58692;43.212;27.908;2024-02-21T15:47:38;7.55;90.39
71039;SHT30;58692;43.212;27.908;2024-02-21T15:50:04;7.58;90.44
71039;SHT30;58692;43.212;27.908;2024-02-21T15:52:31;7.56;90.43